Time;durP1;ratioP1;P1;durP2;ratioP2;P2;SDS_P1;SDS_P2;PMS_P1;PMS_P2;Temp;Humidity;BMP_temperature;BMP_pressure;BME280_temperature;BME280_humidity;BME280_pressure;Samples;Min_cycle;Max_cycle;Signal;HPM_P1;HPM_P2
2022/09/23 00:00:39;;;;;;;;;16.50;14.00;;;;;17.02;37.15;101295.66;4979696;28;45302;-57
2022/09/23 00:03:04;;;;;;;;;16.50;15.50;;;;;17.00;37.19;101297.47;4979660;28;45570;-56
2022/09/23 00:05:31;;;;;;;;;16.00;15.25;;;;;16.96;37.03;101290.53;4979524;28;45248;-56
2022/09/23 00:07:58;;;;;;;;;15.75;15.50;;;;;16.93;37.16;101288.84;4978731;28;45251;-56
2022/09/23 00:10:26;;;;;;;;;19.50;14.75;;;;;16.90;37.23;101300.41;4963115;28;45357;-57
2022/09/23 00:12:53;;;;;;;;;13.75;12.75;;;;;16.88;37.48;101291.63;4965186;28;45276;-57
2022/09/23 00:15:19;;;;;;;;;13.75;13.25;;;;;16.83;37.57;101280.28;4983075;28;46380;-57
2022/09/23 00:17:46;;;;;;;;;13.50;12.25;;;;;16.82;37.31;101286.50;4963116;28;45325;-56
2022/09/23 00:20:11;;;;;;;;;19.25;15.00;;;;;16.80;37.62;101283.00;4983171;28;45208;-56
2022/09/23 00:22:37;;;;;;;;;16.50;15.00;;;;;16.78;37.43;101284.88;4982615;28;45418;-56
2022/09/23 00:25:04;;;;;;;;;15.75;15.75;;;;;16.75;37.73;101279.66;4982945;28;45249;-56
2022/09/23 00:27:29;;;;;;;;;12.25;11.50;;;;;16.73;37.58;101286.81;4982757;28;46170;-56
2022/09/23 00:29:55;;;;;;;;;12.00;11.75;;;;;16.71;37.93;101283.31;4982888;28;45505;-57
2022/09/23 00:32:20;;;;;;;;;17.00;17.00;;;;;16.66;37.63;101280.78;4982602;28;45405;-57
2022/09/23 00:34:46;;;;;;;;;15.25;13.75;;;;;16.65;37.49;101273.75;4982731;28;47656;-56
2022/09/23 00:37:12;;;;;;;;;12.50;12.25;;;;;16.62;37.59;101271.22;4982425;28;45468;-57
2022/09/23 00:39:37;;;;;;;;;19.25;19.25;;;;;16.60;37.50;101269.50;4982915;28;45479;-57
2022/09/23 00:42:03;;;;;;;;;16.25;14.50;;;;;16.57;37.82;101270.47;4964932;28;45580;-57
2022/09/23 00:44:58;;;;;;;;;17.00;13.75;;;;;16.55;37.78;101256.38;4982248;28;45778;-58
2022/09/23 00:47:24;;;;;;;;;14.25;13.25;;;;;16.53;37.64;101263.53;4960759;28;45276;-57
2022/09/23 00:50:20;;;;;;;;;14.00;13.00;;;;;16.49;37.77;101261.88;4982457;28;45366;-57
2022/09/23 00:52:47;;;;;;;;;14.50;13.75;;;;;16.43;38.19;101247.03;4972342;28;45304;-57
2022/09/23 00:55:18;;;;;;;;;15.50;12.75;;;;;16.44;38.16;101248.78;4982173;28;46190;-58
2022/09/23 00:57:45;;;;;;;;;11.75;11.00;;;;;16.41;38.01;101243.56;4982276;28;45386;-57
2022/09/23 01:00:11;;;;;;;;;12.00;12.00;;;;;16.39;37.95;101248.06;4981981;28;45466;-57
2022/09/23 01:02:37;;;;;;;;;15.75;14.75;;;;;16.36;37.84;101248.13;4982471;28;45208;-57
2022/09/23 01:05:04;;;;;;;;;14.75;13.75;;;;;16.32;38.04;101249.16;4981825;28;46212;-57
2022/09/23 01:07:30;;;;;;;;;18.00;15.50;;;;;16.27;38.35;101243.97;4982070;28;45398;-58
2022/09/23 01:09:57;;;;;;;;;12.25;11.50;;;;;16.27;38.51;101246.63;4982247;28;45354;-58
2022/09/23 01:12:25;;;;;;;;;17.75;15.75;;;;;16.24;38.13;101252.03;4982195;28;45459;-58
2022/09/23 01:14:54;;;;;;;;;13.50;13.50;;;;;16.22;38.48;101248.53;4981900;28;46302;-58
2022/09/23 01:17:43;;;;;;;;;16.50;13.25;;;;;16.17;38.44;101246.03;4981996;28;45307;-59
2022/09/23 01:20:30;;;;;;;;;16.75;16.00;;;;;16.17;38.56;101245.16;4961475;28;45372;-58
2022/09/23 01:23:10;;;;;;;;;15.00;13.50;;;;;16.13;38.36;101239.06;4978740;28;45224;-58
2022/09/23 01:25:51;;;;;;;;;16.25;14.75;;;;;16.09;38.68;101235.66;4981393;28;45369;-58
2022/09/23 01:28:32;;;;;;;;;15.50;13.00;;;;;16.07;38.31;101234.84;4970225;28;45174;-58
2022/09/23 01:31:34;;;;;;;;;19.00;16.25;;;;;16.05;38.36;101235.78;4979751;28;45332;-58
2022/09/23 01:34:31;;;;;;;;;12.75;12.75;;;;;16.04;38.66;101237.56;4957850;28;45370;-58
2022/09/23 01:37:03;;;;;;;;;15.00;14.25;;;;;16.01;38.85;101234.13;4977234;28;45396;-58
2022/09/23 01:39:57;;;;;;;;;14.50;14.50;;;;;15.99;38.91;101231.53;4969406;28;45393;-58
2022/09/23 01:42:35;;;;;;;;;22.25;17.25;;;;;15.96;38.62;101226.34;4968571;28;45288;-58
2022/09/23 01:45:27;;;;;;;;;20.25;18.00;;;;;15.93;38.82;101226.41;4981579;28;45279;-58
2022/09/23 01:48:09;;;;;;;;;18.75;16.25;;;;;15.91;38.68;101223.81;4972006;28;47095;-58
2022/09/23 01:50:55;;;;;;;;;17.50;14.00;;;;;15.86;38.72;101217.78;4981460;28;45351;-58
2022/09/23 01:53:27;;;;;;;;;15.00;13.00;;;;;15.85;38.79;101217.81;4981354;28;45247;-58
2022/09/23 01:55:56;;;;;;;;;13.50;12.75;;;;;15.84;38.90;101219.59;4981728;28;45242;-58
2022/09/23 01:58:21;;;;;;;;;16.00;15.50;;;;;15.84;38.83;101224.03;4980976;28;47012;-58
2022/09/23 02:01:00;;;;;;;;;12.50;12.25;;;;;15.81;39.40;101229.38;4981239;28;45232;-58
2022/09/23 02:03:44;;;;;;;;;12.75;12.00;;;;;15.79;38.85;101220.63;4981404;28;45445;-58
2022/09/23 02:06:20;;;;;;;;;11.50;11.50;;;;;15.76;39.24;101224.22;4973844;28;45351;-58
2022/09/23 02:08:55;;;;;;;;;12.25;10.00;;;;;15.73;39.44;101221.66;4968112;28;46439;-58
2022/09/23 02:11:20;;;;;;;;;15.50;12.50;;;;;15.73;39.42;101229.59;4981072;28;45306;-58
2022/09/23 02:13:54;;;;;;;;;16.50;15.25;;;;;15.67;39.02;101228.00;4981225;28;45405;-58
2022/09/23 02:16:28;;;;;;;;;35.00;26.25;;;;;15.67;39.30;101220.06;4981231;28;45232;-58
2022/09/23 02:19:00;;;;;;;;;27.00;24.00;;;;;15.67;39.57;101221.81;4981037;28;45255;-58
2022/09/23 02:21:34;;;;;;;;;19.75;19.00;;;;;15.65;39.56;101221.84;4981010;28;45328;-58
2022/09/23 02:24:08;;;;;;;;;21.75;20.75;;;;;15.65;39.22;101223.66;4981030;28;45387;-58
2022/09/23 02:26:45;;;;;;;;;23.50;19.00;;;;;15.64;39.56;101224.56;4968299;28;45413;-58
2022/09/23 02:29:30;;;;;;;;;23.00;18.50;;;;;15.58;39.58;101213.22;4980563;28;46399;-58
2022/09/23 02:32:17;;;;;;;;;20.50;16.75;;;;;15.62;39.66;101221.06;4980871;28;45162;-58
2022/09/23 02:34:42;;;;;;;;;23.75;19.50;;;;;15.60;39.37;101213.19;4968419;28;45216;-58
2022/09/23 02:37:23;;;;;;;;;20.75;16.75;;;;;15.59;39.31;101209.63;4980593;28;45267;-58
2022/09/23 02:40:09;;;;;;;;;21.25;21.00;;;;;15.58;39.92;101210.56;4980835;28;45502;-58
2022/09/23 02:43:06;;;;;;;;;23.75;19.75;;;;;15.57;39.47;101207.94;4980409;28;45419;-58
2022/09/23 02:45:32;;;;;;;;;18.50;16.50;;;;;15.55;39.91;101207.13;4980659;28;45458;-58
2022/09/23 02:48:05;;;;;;;;;13.75;12.75;;;;;15.53;39.99;101208.94;4980617;28;45237;-58
2022/09/23 02:50:32;;;;;;;;;11.00;8.00;;;;;15.56;40.08;101206.22;4980373;28;47186;-58
2022/09/23 02:52:59;;;;;;;;;15.25;12.75;;;;;15.55;39.68;101208.00;4980364;28;45255;-58
2022/09/23 02:55:32;;;;;;;;;16.50;16.50;;;;;15.55;39.79;101199.19;4980500;28;45236;-58
2022/09/23 02:58:00;;;;;;;;;16.50;14.75;;;;;15.54;39.77;101206.25;4980301;28;45602;-59
2022/09/23 03:00:35;;;;;;;;;15.25;14.75;;;;;15.50;39.94;101196.66;4980025;28;45264;-58
2022/09/23 03:03:55;;;;;;;;;16.75;15.75;;;;;15.53;39.89;101198.34;4980575;28;45346;-58
2022/09/23 03:06:43;;;;;;;;;15.75;14.50;;;;;15.52;39.60;101200.16;4901187;29;45448;-58
2022/09/23 03:09:17;;;;;;;;;15.25;14.25;;;;;15.49;39.80;101200.22;4971010;28;45312;-58
2022/09/23 03:11:49;;;;;;;;;16.00;13.75;;;;;15.49;40.09;101202.00;4980298;28;45446;-58
2022/09/23 03:14:32;;;;;;;;;15.25;14.25;;;;;15.46;40.12;101196.78;4980291;28;45395;-58
2022/09/23 03:17:05;;;;;;;;;21.25;18.00;;;;;15.42;40.27;101188.94;4968620;28;45407;-59
2022/09/23 03:19:33;;;;;;;;;18.00;16.25;;;;;15.44;40.15;101186.22;4980144;28;45338;-58
2022/09/23 03:22:13;;;;;;;;;17.50;15.25;;;;;15.44;40.03;101188.88;4979839;28;46462;-58
2022/09/23 03:24:43;;;;;;;;;16.50;14.50;;;;;15.41;40.04;101181.88;4960678;28;45280;-58
2022/09/23 03:27:18;;;;;;;;;22.25;16.75;;;;;15.40;40.14;101189.88;4971203;28;45386;-58
2022/09/23 03:29:48;;;;;;;;;13.00;13.00;;;;;15.41;40.05;101189.84;4979994;28;45434;-58
2022/09/23 03:32:16;;;;;;;;;14.00;14.00;;;;;15.37;40.14;101185.53;4977013;28;47290;-58
2022/09/23 03:34:43;;;;;;;;;16.25;15.75;;;;;15.39;39.90;101196.09;4980078;28;45445;-58
2022/09/23 03:37:22;;;;;;;;;15.25;13.50;;;;;15.30;40.48;101172.50;4979785;28;45513;-58
2022/09/23 03:40:02;;;;;;;;;17.00;15.50;;;;;15.37;40.35;101189.94;4962091;28;45249;-58
2022/09/23 03:42:30;;;;;;;;;16.50;16.00;;;;;15.36;40.44;101188.25;4979558;28;45897;-58
2022/09/23 03:44:56;;;;;;;;;15.50;13.75;;;;;15.34;40.28;101187.41;4981009;28;45268;-59
2022/09/23 03:47:24;;;;;;;;;14.75;14.75;;;;;15.33;40.24;101189.16;4983361;28;45215;-58
2022/09/23 03:49:51;;;;;;;;;16.00;15.50;;;;;15.33;40.37;101193.59;4975460;28;45389;-58
2022/09/23 03:52:19;;;;;;;;;16.00;15.00;;;;;15.32;40.17;101197.16;4982732;28;46412;-58
2022/09/23 03:54:44;;;;;;;;;17.25;14.50;;;;;15.27;40.50;101195.50;4982072;28;45264;-59
2022/09/23 03:57:11;;;;;;;;;13.75;13.50;;;;;15.30;40.18;101205.16;4962381;28;45474;-58
2022/09/23 03:59:36;;;;;;;;;13.25;12.75;;;;;15.28;40.23;101202.53;4974775;28;45253;-58
2022/09/23 04:02:04;;;;;;;;;17.25;13.50;;;;;15.27;40.76;101206.09;4982864;28;45350;-58
2022/09/23 04:04:32;;;;;;;;;15.00;13.50;;;;;15.23;40.39;101196.50;4983038;28;45242;-58
2022/09/23 04:06:58;;;;;;;;;14.00;13.50;;;;;15.25;40.42;101207.03;4982858;28;45417;-58
2022/09/23 04:09:24;;;;;;;;;17.50;15.75;;;;;15.24;40.46;101205.31;4982987;28;45277;-59
2022/09/23 04:11:50;;;;;;;;;17.75;15.25;;;;;15.22;40.83;101200.06;4982839;28;45441;-59
2022/09/23 04:14:17;;;;;;;;;19.75;14.75;;;;;15.22;40.47;101210.66;4983038;28;45445;-59
2022/09/23 04:16:42;;;;;;;;;13.75;12.75;;;;;15.21;40.69;101214.19;4983100;28;45206;-69
2022/09/23 04:19:12;;;;;;;;;16.25;13.75;;;;;15.18;40.87;101206.34;4982968;28;45416;-69
2022/09/23 04:21:38;;;;;;;;;14.25;13.75;;;;;15.20;40.33;101215.09;4970074;28;45453;-58
2022/09/23 04:24:04;;;;;;;;;18.00;16.00;;;;;15.20;40.73;101214.25;4965078;28;45332;-66
2022/09/23 04:26:31;;;;;;;;;14.25;13.25;;;;;15.18;40.32;101213.41;4982927;28;45303;-68
2022/09/23 04:28:57;;;;;;;;;15.25;15.25;;;;;15.18;40.50;101206.34;4982690;28;45428;-64
2022/09/23 04:31:22;;;;;;;;;16.50;16.50;;;;;15.18;40.99;101209.00;4963579;28;47003;-72
2022/09/23 04:33:49;;;;;;;;;15.25;15.25;;;;;15.16;40.72;101202.84;4982535;28;45225;-59
2022/09/23 04:36:14;;;;;;;;;10.50;10.50;;;;;15.13;40.99;101197.63;4982863;28;45453;-57
2022/09/23 04:38:43;;;;;;;;;17.50;16.75;;;;;15.16;40.40;101199.34;4982141;28;45157;-58
2022/09/23 04:41:08;;;;;;;;;18.75;17.50;;;;;15.15;40.67;101195.81;4982175;28;45407;-58
2022/09/23 04:43:34;;;;;;;;;16.25;16.25;;;;;15.14;40.63;101201.16;4982015;28;45343;-58
2022/09/23 04:46:02;;;;;;;;;13.75;13.50;;;;;15.15;40.78;101205.56;4982799;28;46011;-58
2022/09/23 04:48:28;;;;;;;;;15.00;14.50;;;;;15.13;40.63;101194.97;4958217;28;45291;-58
2022/09/23 04:50:54;;;;;;;;;18.25;17.50;;;;;15.13;41.12;101202.06;4982207;28;46015;-58
2022/09/23 04:53:21;;;;;;;;;16.25;13.75;;;;;15.11;41.15;101181.78;4982000;28;45352;-58
2022/09/23 04:55:46;;;;;;;;;18.00;17.00;;;;;15.09;40.86;101180.97;4981540;28;45327;-58
2022/09/23 04:58:12;;;;;;;;;16.50;14.00;;;;;15.07;41.10;101182.78;4951226;28;45327;-58
2022/09/23 05:00:37;;;;;;;;;15.25;14.00;;;;;15.08;41.08;101175.72;4981734;28;45449;-57
2022/09/23 05:03:02;;;;;;;;;15.50;14.25;;;;;15.07;41.03;101188.09;4982266;28;45610;-57
2022/09/23 05:05:29;;;;;;;;;14.75;14.00;;;;;15.06;40.71;101180.19;4981999;28;45492;-57
2022/09/23 05:07:54;;;;;;;;;17.25;16.00;;;;;15.05;40.80;101181.09;4981832;28;45371;-58
2022/09/23 05:10:20;;;;;;;;;16.00;16.00;;;;;15.03;40.73;101177.59;4969122;28;45367;-57
2022/09/23 05:12:46;;;;;;;;;14.50;14.50;;;;;15.01;40.76;101179.44;4981717;28;45282;-57
2022/09/23 05:15:13;;;;;;;;;21.00;17.25;;;;;15.00;40.83;101170.63;4982236;28;45167;-57
2022/09/23 05:17:39;;;;;;;;;16.00;15.00;;;;;14.98;41.40;101172.47;4964298;28;45563;-56
2022/09/23 05:20:04;;;;;;;;;17.00;15.50;;;;;14.97;41.11;101175.13;4981774;28;45218;-56
2022/09/23 05:22:30;;;;;;;;;17.75;15.50;;;;;14.94;41.06;101171.66;4981283;28;45319;-58
2022/09/23 05:24:55;;;;;;;;;16.25;16.25;;;;;14.88;41.34;101177.09;4981892;28;45486;-58
2022/09/23 05:27:20;;;;;;;;;17.50;15.50;;;;;14.90;40.98;101183.22;4984244;28;47841;-57
2022/09/23 05:29:47;;;;;;;;;21.75;16.50;;;;;14.90;41.33;101179.72;4991098;28;46105;-59
2022/09/23 05:32:14;;;;;;;;;18.25;16.00;;;;;14.88;40.84;101174.47;4984291;28;45334;-60
2022/09/23 05:34:39;;;;;;;;;17.25;14.25;;;;;14.87;40.98;101167.44;4981778;28;45325;-59
2022/09/23 05:37:04;;;;;;;;;15.00;15.00;;;;;14.87;41.12;101166.56;4961211;28;45462;-59
2022/09/23 05:39:30;;;;;;;;;14.25;13.75;;;;;14.87;41.07;101177.16;4981713;28;45965;-57
2022/09/23 05:41:55;;;;;;;;;17.00;16.00;;;;;14.86;41.29;101181.56;4981426;28;45241;-57
2022/09/23 05:44:21;;;;;;;;;20.00;17.75;;;;;14.83;41.70;101172.81;4981370;28;45330;-58
2022/09/23 05:46:46;;;;;;;;;17.75;16.25;;;;;14.87;41.23;101174.50;4981500;28;45275;-55
2022/09/23 05:49:12;;;;;;;;;15.50;15.25;;;;;14.87;41.29;101179.81;4980908;28;45970;-57
2022/09/23 05:51:37;;;;;;;;;18.25;15.50;;;;;14.84;41.62;101179.84;4979516;28;51030;-58
2022/09/23 05:54:04;;;;;;;;;14.50;12.50;;;;;14.86;41.21;101181.56;4981241;28;45232;-58
2022/09/23 05:56:30;;;;;;;;;19.25;17.50;;;;;14.86;41.28;101184.19;4981385;28;45236;-54
2022/09/23 05:58:57;;;;;;;;;22.25;18.25;;;;;14.88;41.85;101187.69;4979991;28;45508;-56
2022/09/23 06:01:25;;;;;;;;;19.50;17.50;;;;;14.84;41.77;101180.75;4980999;28;45538;-56
2022/09/23 06:03:52;;;;;;;;;18.00;18.00;;;;;14.88;41.53;101177.09;4947333;28;45418;-57
2022/09/23 06:06:19;;;;;;;;;17.00;14.75;;;;;14.89;41.82;101177.97;4981292;28;45316;-56
2022/09/23 06:08:46;;;;;;;;;17.25;16.50;;;;;14.90;41.35;101185.84;4967098;28;46439;-57
2022/09/23 06:11:12;;;;;;;;;21.25;17.25;;;;;14.91;41.78;101192.88;4980932;28;45397;-57
2022/09/23 06:13:38;;;;;;;;;22.75;21.25;;;;;14.92;41.99;101185.84;4981007;28;45440;-57
2022/09/23 06:16:09;;;;;;;;;25.25;20.75;;;;;14.94;41.78;101187.53;4980812;28;45331;-57
2022/09/23 06:18:37;;;;;;;;;16.75;16.25;;;;;14.95;41.93;101191.94;4963358;28;45508;-55
2022/09/23 06:21:03;;;;;;;;;16.25;15.25;;;;;14.97;42.00;101197.19;4980499;28;45324;-60
2022/09/23 06:23:29;;;;;;;;;21.00;18.25;;;;;14.95;41.89;101194.56;4979703;28;45505;-61
2022/09/23 06:26:00;;;;;;;;;19.00;18.00;;;;;14.96;41.63;101184.84;4980618;28;45494;-60
2022/09/23 06:28:29;;;;;;;;;17.00;17.00;;;;;15.00;41.62;101189.16;4980546;28;45568;-60
2022/09/23 06:30:59;;;;;;;;;18.50;16.75;;;;;14.96;42.07;101190.13;4963158;28;45339;-60
2022/09/23 06:33:25;;;;;;;;;18.00;16.75;;;;;14.93;41.69;101183.16;4981009;28;45145;-60
2022/09/23 06:35:57;;;;;;;;;20.00;18.75;;;;;15.05;42.18;101197.84;4980623;28;45467;-60
2022/09/23 06:38:23;;;;;;;;;21.25;20.50;;;;;15.05;42.19;101195.19;4981484;28;46287;-60
2022/09/23 06:40:58;;;;;;;;;15.25;14.75;;;;;15.07;41.71;101201.31;5073135;28;45294;-60
2022/09/23 06:43:24;;;;;;;;;18.75;17.00;;;;;15.07;41.73;101193.38;5056047;28;45467;-60
2022/09/23 06:45:59;;;;;;;;;18.25;17.00;;;;;15.09;41.66;101190.69;5056570;28;45239;-60
2022/09/23 06:48:25;;;;;;;;;15.75;15.75;;;;;15.10;42.23;101192.44;5056132;28;45259;-60
2022/09/23 06:50:52;;;;;;;;;19.75;16.75;;;;;15.10;41.98;101187.13;5036472;28;46462;-60
2022/09/23 06:53:18;;;;;;;;;19.50;19.50;;;;;15.14;42.02;101201.16;5035807;28;45469;-60
2022/09/23 06:55:43;;;;;;;;;20.00;20.00;;;;;15.14;42.00;101185.28;5036202;28;45374;-60
2022/09/23 06:58:09;;;;;;;;;17.75;16.25;;;;;15.17;42.26;101188.72;5035389;28;55852;-61
2022/09/23 07:00:35;;;;;;;;;18.50;16.50;;;;;15.19;42.29;101192.19;5036106;28;46018;-60
2022/09/23 07:03:05;;;;;;;;;19.00;17.75;;;;;15.20;42.13;101199.22;5035949;28;45319;-60
2022/09/23 07:05:30;;;;;;;;;18.00;17.00;;;;;15.23;42.00;101198.25;5036240;28;45221;-60
2022/09/23 07:07:55;;;;;;;;;16.50;15.50;;;;;15.23;42.06;101193.84;5035838;28;45542;-60
2022/09/23 07:10:21;;;;;;;;;17.25;15.75;;;;;15.25;42.21;101202.59;5035619;28;50546;-60
2022/09/23 07:12:46;;;;;;;;;17.25;16.00;;;;;15.26;41.70;101203.50;5039111;28;45328;-60
2022/09/23 07:15:11;;;;;;;;;19.25;16.00;;;;;15.27;42.14;101200.81;5036007;28;45273;-60
2022/09/23 07:17:40;;;;;;;;;15.75;15.50;;;;;15.27;41.82;101190.22;5035909;28;45435;-60
2022/09/23 07:20:06;;;;;;;;;16.50;16.50;;;;;15.32;41.70;101197.16;5034541;28;46208;-60
2022/09/23 07:22:31;;;;;;;;;19.75;17.75;;;;;15.33;42.32;101189.16;5035443;28;45336;-61
2022/09/23 07:24:57;;;;;;;;;19.25;18.00;;;;;15.37;41.85;101184.66;5035876;28;45295;-59
2022/09/23 07:27:24;;;;;;;;;16.25;15.25;;;;;15.38;41.70;101184.63;5035582;28;45754;-60
2022/09/23 07:29:50;;;;;;;;;16.25;14.75;;;;;15.41;42.23;101194.28;5035671;28;45318;-59
2022/09/23 07:32:17;;;;;;;;;12.50;12.50;;;;;15.41;41.93;101191.63;5035434;28;45241;-59
2022/09/23 07:34:43;;;;;;;;;16.50;13.25;;;;;15.41;42.28;101188.97;5041644;28;45306;-60
2022/09/23 07:37:09;;;;;;;;;16.00;13.50;;;;;15.44;42.08;101183.59;5041477;28;45637;-60
2022/09/23 07:39:35;;;;;;;;;16.00;15.00;;;;;15.48;41.70;101192.31;5044126;28;46197;-60
2022/09/23 07:42:02;;;;;;;;;16.00;15.25;;;;;15.49;42.31;101186.97;5055407;28;45340;-60
2022/09/23 07:44:30;;;;;;;;;15.50;11.75;;;;;15.49;42.25;101184.31;5055488;28;45363;-60
2022/09/23 07:46:55;;;;;;;;;12.75;10.75;;;;;15.52;42.01;101186.91;5055125;28;45470;-60
2022/09/23 07:49:21;;;;;;;;;16.75;14.25;;;;;15.54;42.19;101186.84;5063827;28;45216;-60
2022/09/23 07:51:46;;;;;;;;;19.75;14.50;;;;;15.57;42.21;101189.41;5044474;28;51093;-60
2022/09/23 07:54:14;;;;;;;;;17.75;13.50;;;;;15.62;42.25;101194.59;5042269;28;45182;-60
2022/09/23 07:56:41;;;;;;;;;18.50;14.50;;;;;15.66;41.72;101201.53;5041785;28;45527;-60
2022/09/23 07:59:09;;;;;;;;;13.75;12.75;;;;;15.70;42.28;101212.00;5033565;28;45323;-60
2022/09/23 08:01:41;;;;;;;;;16.50;14.25;;;;;15.72;41.80;101207.53;5045068;28;45359;-60
2022/09/23 08:04:12;;;;;;;;;12.00;12.00;;;;;15.77;42.04;101217.97;5024170;28;45517;-60
2022/09/23 08:06:42;;;;;;;;;12.25;12.00;;;;;15.77;42.14;101216.22;5041561;28;45511;-61
2022/09/23 08:09:08;;;;;;;;;16.50;13.50;;;;;15.82;42.36;101212.59;5041620;28;45324;-60
2022/09/23 08:11:35;;;;;;;;;15.00;13.00;;;;;15.86;42.28;101225.72;5041452;28;45324;-61
2022/09/23 08:14:00;;;;;;;;;14.00;13.50;;;;;15.91;42.13;101222.91;5036095;28;45323;-61
2022/09/23 08:16:25;;;;;;;;;13.25;11.75;;;;;15.92;41.96;101219.38;5042803;28;45517;-60
2022/09/23 08:18:51;;;;;;;;;16.25;12.00;;;;;15.96;42.06;101218.38;5041559;28;45971;-61
2022/09/23 08:21:21;;;;;;;;;16.00;13.75;;;;;16.01;42.25;101216.47;5041213;28;45205;-61
2022/09/23 08:23:46;;;;;;;;;15.75;15.00;;;;;16.06;41.83;101216.31;5041839;28;45397;-61
2022/09/23 08:26:12;;;;;;;;;17.75;15.50;;;;;16.07;41.87;101218.06;5041542;28;45292;-61
2022/09/23 08:28:37;;;;;;;;;14.00;13.00;;;;;16.15;41.89;101231.06;5041167;28;45668;-61
2022/09/23 08:31:03;;;;;;;;;20.00;17.50;;;;;16.21;41.63;101228.25;5041573;28;45315;-61
2022/09/23 08:33:28;;;;;;;;;18.00;15.50;;;;;16.25;42.21;101216.63;5041658;28;45502;-61
2022/09/23 08:36:01;;;;;;;;;17.50;16.50;;;;;16.31;41.74;101227.03;5041346;28;45328;-61
2022/09/23 08:38:27;;;;;;;;;15.50;15.50;;;;;16.38;41.96;101225.94;5041065;28;45381;-61
2022/09/23 08:41:00;;;;;;;;;19.75;16.00;;;;;16.46;41.95;101217.75;5059542;28;45494;-58
2022/09/23 08:43:28;;;;;;;;;17.75;15.00;;;;;16.53;41.97;101215.78;5047181;28;45277;-58
2022/09/23 08:45:59;;;;;;;;;17.25;15.25;;;;;16.61;41.82;101212.88;5041241;28;45316;-61
2022/09/23 08:48:31;;;;;;;;;22.00;22.00;;;;;16.67;41.63;101215.34;5047486;28;46198;-61
2022/09/23 08:51:06;;;;;;;;;17.75;16.25;;;;;16.76;41.67;101219.50;5041132;28;45302;-61
2022/09/23 08:53:34;;;;;;;;;17.75;15.00;;;;;16.82;41.80;101214.84;5040410;28;45341;-61
2022/09/23 08:56:14;;;;;;;;;20.75;16.50;;;;;16.89;41.75;101216.38;5040966;28;45463;-58
2022/09/23 08:59:04;;;;;;;;;19.25;18.75;;;;;16.98;41.97;101223.22;5046559;28;46254;-61
2022/09/23 09:01:55;;;;;;;;;19.75;17.75;;;;;17.05;41.62;101224.72;5060854;28;45412;-60
2022/09/23 09:04:26;;;;;;;;;21.50;20.25;;;;;17.11;41.74;101220.16;5060432;28;45162;-61
2022/09/23 09:07:08;;;;;;;;;24.00;18.25;;;;;17.16;41.60;101215.53;5060171;28;45519;-61
2022/09/23 09:09:51;;;;;;;;;24.75;20.75;;;;;17.20;41.67;101212.72;5060630;28;46398;-61
2022/09/23 09:12:19;;;;;;;;;26.25;23.00;;;;;17.28;41.77;101208.94;5060766;28;45276;-61
2022/09/23 09:14:51;;;;;;;;;25.25;21.50;;;;;17.33;41.65;101213.16;5060928;28;45427;-60
2022/09/23 09:17:20;;;;;;;;;25.00;21.00;;;;;17.39;41.52;101222.69;5060527;28;45213;-61
2022/09/23 09:19:53;;;;;;;;;22.50;19.00;;;;;17.44;41.44;101212.78;5060169;28;45435;-61
2022/09/23 09:22:38;;;;;;;;;23.50;20.75;;;;;17.46;41.61;101213.59;5060324;28;45237;-61
2022/09/23 09:25:23;;;;;;;;;22.50;20.50;;;;;17.53;41.56;101209.81;5060734;28;45258;-60
2022/09/23 09:27:49;;;;;;;;;19.75;19.75;;;;;17.57;41.29;101209.69;5042198;28;46207;-61
2022/09/23 09:30:15;;;;;;;;;22.00;22.00;;;;;17.61;41.36;101212.19;5060362;28;45396;-61
2022/09/23 09:33:03;;;;;;;;;25.00;23.00;;;;;17.67;41.52;101211.09;5060491;28;45290;-61
2022/09/23 09:35:37;;;;;;;;;26.25;20.75;;;;;17.71;41.33;101207.41;5060317;28;45388;-61
2022/09/23 09:38:04;;;;;;;;;21.50;16.25;;;;;17.78;41.21;101210.69;5060234;28;45332;-61
2022/09/23 09:40:30;;;;;;;;;18.50;16.25;;;;;17.83;41.36;101208.72;5060003;28;46562;-61
2022/09/23 09:42:56;;;;;;;;;19.75;16.00;;;;;17.79;40.99;101178.75;5060183;28;45257;-61
2022/09/23 09:45:39;;;;;;;;;17.25;15.50;;;;;17.93;41.06;101193.31;5060209;28;45241;-61
2022/09/23 09:48:16;;;;;;;;;19.25;16.50;;;;;18.02;41.38;101195.63;5060145;28;45232;-61
2022/09/23 09:50:44;;;;;;;;;18.75;15.25;;;;;18.11;41.07;101197.09;5047484;28;45306;-61
2022/09/23 09:53:20;;;;;;;;;19.00;16.00;;;;;18.20;41.50;101191.44;5041541;28;45433;-61
2022/09/23 09:56:05;;;;;;;;;18.50;14.25;;;;;18.30;41.22;101199.88;5060218;28;45317;-61
2022/09/23 09:58:47;;;;;;;;;20.25;18.75;;;;;18.42;41.01;101196.75;5048440;28;45462;-61
2022/09/23 10:01:33;;;;;;;;;15.75;15.50;;;;;18.55;41.22;101191.78;5059733;28;47353;-61
2022/09/23 10:04:22;;;;;;;;;17.75;15.50;;;;;18.71;41.08;101185.88;5059824;28;45284;-61
2022/09/23 10:07:09;;;;;;;;;18.50;15.00;;;;;18.74;41.47;101165.31;5059743;28;45347;-61
2022/09/23 10:09:37;;;;;;;;;11.75;11.25;;;;;19.02;40.97;101192.56;5059721;28;45236;-61
2022/09/23 10:12:19;;;;;;;;;17.75;16.50;;;;;19.22;41.56;101183.72;5059764;28;45429;-61
2022/09/23 10:14:50;;;;;;;;;25.50;22.50;;;;;19.39;40.85;101185.66;5059410;28;45245;-61
2022/09/23 10:17:26;;;;;;;;;19.00;18.25;;;;;19.59;41.22;101176.78;5059971;28;45357;-61
2022/09/23 10:20:05;;;;;;;;;21.25;18.50;;;;;19.83;40.72;101179.31;5059770;28;45307;-61
2022/09/23 10:22:38;;;;;;;;;25.25;19.50;;;;;20.03;40.73;101178.38;5059104;28;47297;-61
2022/09/23 10:25:14;;;;;;;;;18.25;17.00;;;;;20.22;41.13;101183.69;5059667;28;45395;-61
2022/09/23 10:27:39;;;;;;;;;18.50;18.00;;;;;20.38;40.49;101171.34;5059663;28;45307;-61
2022/09/23 10:30:26;;;;;;;;;15.00;13.25;;;;;20.55;40.34;101172.31;5059558;28;45317;-61
2022/09/23 10:32:53;;;;;;;;;17.00;15.50;;;;;20.69;40.29;101175.19;5059675;28;46141;-61
2022/09/23 10:35:23;;;;;;;;;19.00;16.25;;;;;20.81;40.53;101171.06;5059436;28;45398;-61
2022/09/23 10:37:48;;;;;;;;;22.75;20.50;;;;;20.93;39.91;101170.44;5059407;28;45477;-61
2022/09/23 10:48:49;;;;;;;;;19.50;15.50;;;;;21.33;39.35;101172.84;5053966;28;45261;-61
2022/09/23 10:52:06;;;;;;;;;13.00;12.25;;;;;21.41;39.74;101162.63;5039003;28;45415;-61
2022/09/23 10:54:51;;;;;;;;;13.00;9.75;;;;;21.51;39.04;101163.00;5023703;28;45247;-61
2022/09/23 10:57:39;;;;;;;;;18.50;16.50;;;;;21.62;39.40;101154.41;5041633;28;45289;-61
2022/09/23 11:00:33;;;;;;;;;11.75;10.75;;;;;21.73;39.18;101146.66;5057171;28;45366;-61
2022/09/23 11:03:24;;;;;;;;;16.00;13.25;;;;;21.85;39.41;101147.81;5059107;28;45438;-61
2022/09/23 11:06:20;;;;;;;;;24.00;19.00;;;;;21.98;38.79;101148.00;5058960;28;46325;-61
2022/09/23 11:08:57;;;;;;;;;13.25;13.25;;;;;22.10;38.74;101142.91;5059015;28;45334;-61
2022/09/23 11:11:28;;;;;;;;;10.25;10.25;;;;;22.22;38.88;101137.69;5040992;28;45318;-61
2022/09/23 11:14:24;;;;;;;;;14.25;13.50;;;;;22.36;38.96;101144.09;5029242;28;45519;-61
2022/09/23 11:17:13;;;;;;;;;9.25;7.25;;;;;22.48;38.46;101140.75;5039123;28;45654;-61
2022/09/23 11:20:16;;;;;;;;;13.00;11.25;;;;;22.59;38.29;101134.78;5020823;28;45299;-61
2022/09/23 11:23:06;;;;;;;;;11.50;11.00;;;;;22.67;38.14;101132.47;5038628;28;45499;-61
2022/09/23 11:25:57;;;;;;;;;11.00;9.50;;;;;22.72;38.25;101132.22;5038840;28;45419;-61
2022/09/23 11:28:41;;;;;;;;;6.25;5.50;;;;;22.76;37.85;101139.13;5042098;28;45232;-61
2022/09/23 11:31:36;;;;;;;;;12.50;9.00;;;;;22.79;37.83;101136.28;5042241;28;45374;-61
2022/09/23 11:34:14;;;;;;;;;12.50;9.25;;;;;22.81;37.83;101126.31;5042466;28;45242;-61
2022/09/23 11:37:16;;;;;;;;;9.75;9.50;;;;;22.85;37.92;101124.31;5041814;28;45321;-61
2022/09/23 11:39:44;;;;;;;;;13.50;13.25;;;;;22.87;37.28;101123.25;5042112;28;45267;-61